Williamsport Regional Airport
KIPT : rendu visible

Aérodrome :











RETROUVEZ-NOUS SUR...

 
LOGIN :

S'inscrire | Disclaimer

   EN    FR    IT 

 









Légende :    VFR   VFR Marginal   IFR   IFR Intensif   IFR Très Intensif
Visi : 
Plafond : 
>= 8 km
>= 3000ft
5 à 8 km
1000 à 3000 ft
1500m à 5 km
500 à 1000 ft
800 à 1500m
200 à 500 ft
< 800m
< 200 ft
Symboles :   Orages  Brouillard  Fortes neiges  Fortes précipitations  Vent > 20 kt






- Altitude de l'aérodrome : 529 ft
- Code IATA : IPT


KIPT - Williamsport Regional

DERNIER METAR :
  • 210754Z AUTO 27007KT 10SM SCT035 02/M02 A3023 RMK AO2 SLP241 T00221022

METARs EXPIRÉS :
  • 210654Z AUTO 27010KT 10SM OVC035 03/M03 A3023 RMK AO2 SLP239 T00331028
  • 210554Z AUTO 27010KT 10SM OVC036 04/M03 A3021 RMK AO2 SLP234 T00441028 10078 20022 53008

TAF KIPT
Valide du 21 à 07h jusqu'au 22 à 06h UTC


210707Z 2107/2206 28007KT P6SM SCT035
TEMPO 2107/2110 BKN035
FM211100 VRB02KT P6SM SCT250
FM211700 12004KT P6SM OVC080
FM220200 09007KT P6SM BKN050 WS015/22030KT



MET'MAP, la Météo Aéronautique d'un coup d'oeil ! - Copyright ORBIFLY Décembre 2007 - Disclaimer

ORBIFLY MET'MAP TEAM :

Programmation & Développement : Alexandra Zaïnal
Conception & Développement : Baudouin d'Aumeries
Co-Programmation & Développement : Marc-Olivier Méhu
Soutien technique & logistique : Manuel Goepfert

Contact : metmap@orbifly.com




SOURCES & CREDITS :

   NOAA       Earth
Advisory